sensor_id;sensor_type;location;lat;lon;timestamp;P1;durP1;ratioP1;P2;durP2;ratioP2
21036;SDS011;10677;50.942;4.028;2023-08-06T00:00:23;11.73;;;6.78;;
21036;SDS011;10677;50.942;4.028;2023-08-06T00:02:50;14.27;;;6.28;;
21036;SDS011;10677;50.942;4.028;2023-08-06T00:05:16;12.10;;;6.38;;
21036;SDS011;10677;50.942;4.028;2023-08-06T00:07:49;12.02;;;6.25;;
21036;SDS011;10677;50.942;4.028;2023-08-06T00:10:15;12.82;;;6.68;;
21036;SDS011;10677;50.942;4.028;2023-08-06T00:12:41;12.15;;;6.65;;
21036;SDS011;10677;50.942;4.028;2023-08-06T00:15:08;14.13;;;7.35;;
21036;SDS011;10677;50.942;4.028;2023-08-06T00:17:34;13.35;;;7.20;;
21036;SDS011;10677;50.942;4.028;2023-08-06T00:20:00;12.57;;;6.75;;
21036;SDS011;10677;50.942;4.028;2023-08-06T00:22:34;11.95;;;7.07;;
21036;SDS011;10677;50.942;4.028;2023-08-06T00:25:01;13.35;;;7.93;;
21036;SDS011;10677;50.942;4.028;2023-08-06T00:27:27;15.35;;;9.05;;
21036;SDS011;10677;50.942;4.028;2023-08-06T00:29:53;14.30;;;8.60;;
21036;SDS011;10677;50.942;4.028;2023-08-06T00:32:19;14.05;;;7.95;;
21036;SDS011;10677;50.942;4.028;2023-08-06T00:34:45;12.88;;;8.18;;
21036;SDS011;10677;50.942;4.028;2023-08-06T00:37:10;14.73;;;8.57;;
21036;SDS011;10677;50.942;4.028;2023-08-06T00:39:36;19.10;;;9.45;;
21036;SDS011;10677;50.942;4.028;2023-08-06T00:42:02;15.88;;;9.15;;
21036;SDS011;10677;50.942;4.028;2023-08-06T00:44:28;15.43;;;9.88;;
21036;SDS011;10677;50.942;4.028;2023-08-06T00:46:53;15.23;;;9.38;;
21036;SDS011;10677;50.942;4.028;2023-08-06T00:49:20;20.02;;;10.20;;
21036;SDS011;10677;50.942;4.028;2023-08-06T00:51:46;15.55;;;9.93;;
21036;SDS011;10677;50.942;4.028;2023-08-06T00:54:12;15.60;;;10.10;;
21036;SDS011;10677;50.942;4.028;2023-08-06T00:56:38;16.27;;;10.65;;
21036;SDS011;10677;50.942;4.028;2023-08-06T00:59:06;17.88;;;10.40;;
21036;SDS011;10677;50.942;4.028;2023-08-06T01:01:32;17.23;;;9.85;;
21036;SDS011;10677;50.942;4.028;2023-08-06T01:03:57;15.68;;;9.73;;
21036;SDS011;10677;50.942;4.028;2023-08-06T01:06:44;24.38;;;9.65;;
21036;SDS011;10677;50.942;4.028;2023-08-06T01:14:54;13.00;;;6.65;;
21036;SDS011;10677;50.942;4.028;2023-08-06T01:17:27;12.63;;;6.13;;
21036;SDS011;10677;50.942;4.028;2023-08-06T01:19:54;9.38;;;4.35;;
21036;SDS011;10677;50.942;4.028;2023-08-06T01:22:20;11.38;;;4.63;;
21036;SDS011;10677;50.942;4.028;2023-08-06T01:24:48;10.43;;;3.75;;
21036;SDS011;10677;50.942;4.028;2023-08-06T01:27:17;7.43;;;3.13;;
21036;SDS011;10677;50.942;4.028;2023-08-06T01:30:02;10.80;;;3.28;;
21036;SDS011;10677;50.942;4.028;2023-08-06T01:32:34;7.78;;;2.13;;
21036;SDS011;10677;50.942;4.028;2023-08-06T01:35:00;5.25;;;1.90;;
21036;SDS011;10677;50.942;4.028;2023-08-06T01:37:27;6.45;;;1.67;;
21036;SDS011;10677;50.942;4.028;2023-08-06T01:39:53;13.70;;;1.90;;
21036;SDS011;10677;50.942;4.028;2023-08-06T01:42:19;6.05;;;1.48;;
21036;SDS011;10677;50.942;4.028;2023-08-06T01:44:44;8.10;;;1.60;;
21036;SDS011;10677;50.942;4.028;2023-08-06T01:47:10;8.35;;;1.98;;
21036;SDS011;10677;50.942;4.028;2023-08-06T01:49:36;6.68;;;1.20;;
21036;SDS011;10677;50.942;4.028;2023-08-06T01:52:01;10.68;;;1.50;;
21036;SDS011;10677;50.942;4.028;2023-08-06T01:54:27;4.75;;;1.33;;
21036;SDS011;10677;50.942;4.028;2023-08-06T01:56:53;10.77;;;1.90;;
21036;SDS011;10677;50.942;4.028;2023-08-06T01:59:19;9.40;;;1.98;;
21036;SDS011;10677;50.942;4.028;2023-08-06T02:01:44;7.20;;;1.73;;
21036;SDS011;10677;50.942;4.028;2023-08-06T02:04:10;9.77;;;2.05;;
21036;SDS011;10677;50.942;4.028;2023-08-06T02:06:36;12.30;;;2.35;;
21036;SDS011;10677;50.942;4.028;2023-08-06T02:09:01;13.43;;;2.75;;
21036;SDS011;10677;50.942;4.028;2023-08-06T02:11:27;13.82;;;3.05;;
21036;SDS011;10677;50.942;4.028;2023-08-06T02:13:53;13.98;;;3.90;;
21036;SDS011;10677;50.942;4.028;2023-08-06T02:16:19;10.02;;;3.30;;
21036;SDS011;10677;50.942;4.028;2023-08-06T02:18:45;11.43;;;4.40;;
21036;SDS011;10677;50.942;4.028;2023-08-06T02:21:10;12.27;;;6.35;;
21036;SDS011;10677;50.942;4.028;2023-08-06T02:23:36;14.63;;;6.75;;
21036;SDS011;10677;50.942;4.028;2023-08-06T02:26:02;14.18;;;8.77;;
21036;SDS011;10677;50.942;4.028;2023-08-06T02:28:29;18.13;;;9.63;;
21036;SDS011;10677;50.942;4.028;2023-08-06T02:30:55;18.38;;;11.20;;
21036;SDS011;10677;50.942;4.028;2023-08-06T02:33:21;20.35;;;13.02;;
21036;SDS011;10677;50.942;4.028;2023-08-06T02:35:46;26.83;;;14.52;;
21036;SDS011;10677;50.942;4.028;2023-08-06T02:38:12;29.40;;;16.42;;
21036;SDS011;10677;50.942;4.028;2023-08-06T02:40:47;37.60;;;17.23;;
21036;SDS011;10677;50.942;4.028;2023-08-06T02:43:13;25.73;;;13.50;;
21036;SDS011;10677;50.942;4.028;2023-08-06T02:45:39;15.30;;;8.95;;
21036;SDS011;10677;50.942;4.028;2023-08-06T02:48:05;12.75;;;6.93;;
21036;SDS011;10677;50.942;4.028;2023-08-06T02:50:31;7.25;;;4.88;;
21036;SDS011;10677;50.942;4.028;2023-08-06T02:53:03;7.57;;;4.07;;
21036;SDS011;10677;50.942;4.028;2023-08-06T02:55:29;7.38;;;3.10;;
21036;SDS011;10677;50.942;4.028;2023-08-06T02:57:54;8.70;;;2.42;;
21036;SDS011;10677;50.942;4.028;2023-08-06T03:00:20;8.32;;;2.13;;
21036;SDS011;10677;50.942;4.028;2023-08-06T03:02:46;10.85;;;2.42;;
21036;SDS011;10677;50.942;4.028;2023-08-06T03:05:11;12.05;;;2.90;;
21036;SDS011;10677;50.942;4.028;2023-08-06T03:07:37;9.23;;;2.75;;
21036;SDS011;10677;50.942;4.028;2023-08-06T03:10:03;7.55;;;3.10;;
21036;SDS011;10677;50.942;4.028;2023-08-06T03:12:29;12.13;;;3.05;;
21036;SDS011;10677;50.942;4.028;2023-08-06T03:14:54;6.47;;;2.30;;
21036;SDS011;10677;50.942;4.028;2023-08-06T03:17:20;9.48;;;3.08;;
21036;SDS011;10677;50.942;4.028;2023-08-06T03:19:46;10.90;;;4.05;;
21036;SDS011;10677;50.942;4.028;2023-08-06T03:22:12;15.40;;;3.83;;
21036;SDS011;10677;50.942;4.028;2023-08-06T03:24:37;13.13;;;3.70;;
21036;SDS011;10677;50.942;4.028;2023-08-06T03:27:03;8.98;;;3.60;;
21036;SDS011;10677;50.942;4.028;2023-08-06T03:29:29;13.10;;;5.03;;
21036;SDS011;10677;50.942;4.028;2023-08-06T03:31:54;12.50;;;4.13;;
21036;SDS011;10677;50.942;4.028;2023-08-06T03:34:20;15.10;;;4.72;;
21036;SDS011;10677;50.942;4.028;2023-08-06T03:36:46;11.25;;;4.85;;
21036;SDS011;10677;50.942;4.028;2023-08-06T03:39:11;14.52;;;5.20;;
21036;SDS011;10677;50.942;4.028;2023-08-06T03:41:38;16.00;;;6.10;;
21036;SDS011;10677;50.942;4.028;2023-08-06T03:44:05;17.55;;;5.95;;
21036;SDS011;10677;50.942;4.028;2023-08-06T03:46:30;14.20;;;6.68;;
21036;SDS011;10677;50.942;4.028;2023-08-06T03:48:59;13.40;;;6.80;;
21036;SDS011;10677;50.942;4.028;2023-08-06T03:51:26;20.67;;;7.30;;
21036;SDS011;10677;50.942;4.028;2023-08-06T03:53:51;15.45;;;7.25;;
21036;SDS011;10677;50.942;4.028;2023-08-06T03:56:17;24.88;;;7.35;;
21036;SDS011;10677;50.942;4.028;2023-08-06T03:58:43;17.80;;;7.95;;
21036;SDS011;10677;50.942;4.028;2023-08-06T04:01:09;21.83;;;7.97;;
21036;SDS011;10677;50.942;4.028;2023-08-06T04:03:34;20.58;;;8.20;;
21036;SDS011;10677;50.942;4.028;2023-08-06T04:06:02;17.50;;;7.32;;
21036;SDS011;10677;50.942;4.028;2023-08-06T04:08:28;25.02;;;7.35;;
21036;SDS011;10677;50.942;4.028;2023-08-06T04:10:54;17.65;;;8.90;;
21036;SDS011;10677;50.942;4.028;2023-08-06T04:13:19;13.95;;;7.72;;
21036;SDS011;10677;50.942;4.028;2023-08-06T04:15:45;17.35;;;7.55;;
21036;SDS011;10677;50.942;4.028;2023-08-06T04:18:12;13.02;;;6.30;;
21036;SDS011;10677;50.942;4.028;2023-08-06T04:20:47;18.33;;;7.00;;
21036;SDS011;10677;50.942;4.028;2023-08-06T04:23:14;12.23;;;6.25;;
21036;SDS011;10677;50.942;4.028;2023-08-06T04:25:40;13.30;;;6.53;;
21036;SDS011;10677;50.942;4.028;2023-08-06T04:28:06;14.35;;;6.22;;
21036;SDS011;10677;50.942;4.028;2023-08-06T04:30:32;18.02;;;6.28;;
21036;SDS011;10677;50.942;4.028;2023-08-06T04:32:58;17.77;;;7.28;;
21036;SDS011;10677;50.942;4.028;2023-08-06T04:35:24;16.65;;;6.38;;
21036;SDS011;10677;50.942;4.028;2023-08-06T04:37:49;22.33;;;9.07;;
21036;SDS011;10677;50.942;4.028;2023-08-06T04:40:15;25.05;;;10.93;;
21036;SDS011;10677;50.942;4.028;2023-08-06T04:42:41;25.63;;;10.52;;
21036;SDS011;10677;50.942;4.028;2023-08-06T04:45:06;17.83;;;7.25;;
21036;SDS011;10677;50.942;4.028;2023-08-06T04:47:32;20.42;;;7.38;;
21036;SDS011;10677;50.942;4.028;2023-08-06T04:49:58;19.77;;;6.00;;
21036;SDS011;10677;50.942;4.028;2023-08-06T04:52:24;20.23;;;6.57;;
21036;SDS011;10677;50.942;4.028;2023-08-06T04:54:52;12.00;;;5.22;;
21036;SDS011;10677;50.942;4.028;2023-08-06T04:57:18;13.18;;;4.63;;
21036;SDS011;10677;50.942;4.028;2023-08-06T04:59:45;13.55;;;5.07;;
21036;SDS011;10677;50.942;4.028;2023-08-06T05:02:10;13.02;;;4.97;;
21036;SDS011;10677;50.942;4.028;2023-08-06T05:04:36;14.93;;;4.85;;
21036;SDS011;10677;50.942;4.028;2023-08-06T05:07:02;15.20;;;4.43;;
21036;SDS011;10677;50.942;4.028;2023-08-06T05:09:28;22.15;;;5.90;;
21036;SDS011;10677;50.942;4.028;2023-08-06T05:11:54;15.10;;;5.10;;
21036;SDS011;10677;50.942;4.028;2023-08-06T05:14:19;12.70;;;4.85;;
21036;SDS011;10677;50.942;4.028;2023-08-06T05:16:45;13.90;;;4.25;;
21036;SDS011;10677;50.942;4.028;2023-08-06T05:19:11;17.70;;;5.00;;
21036;SDS011;10677;50.942;4.028;2023-08-06T05:21:36;10.07;;;4.07;;
21036;SDS011;10677;50.942;4.028;2023-08-06T05:24:02;11.32;;;4.20;;
21036;SDS011;10677;50.942;4.028;2023-08-06T05:26:28;14.00;;;3.92;;
21036;SDS011;10677;50.942;4.028;2023-08-06T05:28:53;15.70;;;4.40;;
21036;SDS011;10677;50.942;4.028;2023-08-06T05:31:19;13.55;;;3.92;;
21036;SDS011;10677;50.942;4.028;2023-08-06T05:33:45;10.63;;;4.00;;
21036;SDS011;10677;50.942;4.028;2023-08-06T05:36:10;12.07;;;4.20;;
21036;SDS011;10677;50.942;4.028;2023-08-06T05:38:36;13.35;;;4.22;;
21036;SDS011;10677;50.942;4.028;2023-08-06T05:41:02;18.17;;;4.68;;
21036;SDS011;10677;50.942;4.028;2023-08-06T05:43:27;11.68;;;3.97;;
21036;SDS011;10677;50.942;4.028;2023-08-06T05:45:53;18.92;;;4.65;;
21036;SDS011;10677;50.942;4.028;2023-08-06T05:48:19;14.07;;;4.05;;
21036;SDS011;10677;50.942;4.028;2023-08-06T05:50:44;12.38;;;4.05;;
21036;SDS011;10677;50.942;4.028;2023-08-06T05:53:10;15.25;;;4.72;;
21036;SDS011;10677;50.942;4.028;2023-08-06T05:55:36;8.85;;;3.60;;
21036;SDS011;10677;50.942;4.028;2023-08-06T05:58:01;11.20;;;4.35;;
21036;SDS011;10677;50.942;4.028;2023-08-06T06:00:27;14.07;;;4.47;;
21036;SDS011;10677;50.942;4.028;2023-08-06T06:02:53;10.32;;;4.32;;
21036;SDS011;10677;50.942;4.028;2023-08-06T06:05:18;11.52;;;4.35;;
21036;SDS011;10677;50.942;4.028;2023-08-06T06:07:44;15.77;;;4.40;;
21036;SDS011;10677;50.942;4.028;2023-08-06T06:10:10;12.63;;;4.35;;
21036;SDS011;10677;50.942;4.028;2023-08-06T06:12:37;13.25;;;3.72;;
21036;SDS011;10677;50.942;4.028;2023-08-06T06:15:03;12.23;;;4.80;;
21036;SDS011;10677;50.942;4.028;2023-08-06T06:17:29;12.95;;;4.25;;
21036;SDS011;10677;50.942;4.028;2023-08-06T06:19:55;7.13;;;3.25;;
21036;SDS011;10677;50.942;4.028;2023-08-06T06:22:21;12.18;;;3.95;;
21036;SDS011;10677;50.942;4.028;2023-08-06T06:24:46;12.23;;;3.38;;
21036;SDS011;10677;50.942;4.028;2023-08-06T06:27:12;10.35;;;3.50;;
21036;SDS011;10677;50.942;4.028;2023-08-06T06:29:38;19.70;;;3.40;;
21036;SDS011;10677;50.942;4.028;2023-08-06T06:32:04;8.93;;;2.97;;
21036;SDS011;10677;50.942;4.028;2023-08-06T06:34:30;10.93;;;2.08;;
21036;SDS011;10677;50.942;4.028;2023-08-06T06:36:55;11.43;;;2.25;;
21036;SDS011;10677;50.942;4.028;2023-08-06T06:39:21;6.15;;;1.85;;
21036;SDS011;10677;50.942;4.028;2023-08-06T06:41:47;14.23;;;2.40;;
21036;SDS011;10677;50.942;4.028;2023-08-06T06:44:14;5.85;;;2.00;;
21036;SDS011;10677;50.942;4.028;2023-08-06T06:46:40;11.82;;;2.17;;
21036;SDS011;10677;50.942;4.028;2023-08-06T06:49:06;12.50;;;2.67;;
21036;SDS011;10677;50.942;4.028;2023-08-06T06:51:31;13.07;;;2.38;;
21036;SDS011;10677;50.942;4.028;2023-08-06T06:53:57;7.43;;;1.60;;
21036;SDS011;10677;50.942;4.028;2023-08-06T06:56:23;11.68;;;1.70;;
21036;SDS011;10677;50.942;4.028;2023-08-06T06:58:49;11.05;;;1.83;;
21036;SDS011;10677;50.942;4.028;2023-08-06T07:01:14;9.35;;;1.35;;
21036;SDS011;10677;50.942;4.028;2023-08-06T07:03:40;8.50;;;1.67;;
21036;SDS011;10677;50.942;4.028;2023-08-06T07:06:06;6.72;;;1.67;;
21036;SDS011;10677;50.942;4.028;2023-08-06T07:08:32;10.95;;;1.88;;
21036;SDS011;10677;50.942;4.028;2023-08-06T07:11:01;9.65;;;1.35;;
21036;SDS011;10677;50.942;4.028;2023-08-06T07:13:27;9.15;;;1.70;;
21036;SDS011;10677;50.942;4.028;2023-08-06T07:15:54;7.40;;;1.38;;
21036;SDS011;10677;50.942;4.028;2023-08-06T07:18:20;9.43;;;1.33;;
21036;SDS011;10677;50.942;4.028;2023-08-06T07:20:49;12.10;;;1.42;;
21036;SDS011;10677;50.942;4.028;2023-08-06T07:23:16;7.93;;;1.60;;
21036;SDS011;10677;50.942;4.028;2023-08-06T07:25:41;10.82;;;1.73;;
21036;SDS011;10677;50.942;4.028;2023-08-06T07:28:07;10.15;;;1.73;;
21036;SDS011;10677;50.942;4.028;2023-08-06T07:30:33;16.33;;;2.67;;
21036;SDS011;10677;50.942;4.028;2023-08-06T07:33:03;12.35;;;1.88;;
21036;SDS011;10677;50.942;4.028;2023-08-06T07:35:28;7.82;;;1.58;;
21036;SDS011;10677;50.942;4.028;2023-08-06T07:37:54;14.52;;;1.58;;
21036;SDS011;10677;50.942;4.028;2023-08-06T07:40:20;10.25;;;1.73;;
21036;SDS011;10677;50.942;4.028;2023-08-06T07:42:45;7.78;;;1.48;;
21036;SDS011;10677;50.942;4.028;2023-08-06T07:45:11;9.35;;;1.77;;
21036;SDS011;10677;50.942;4.028;2023-08-06T07:47:37;7.80;;;1.67;;
21036;SDS011;10677;50.942;4.028;2023-08-06T07:50:03;9.00;;;1.77;;
21036;SDS011;10677;50.942;4.028;2023-08-06T07:52:29;9.70;;;2.17;;
21036;SDS011;10677;50.942;4.028;2023-08-06T07:54:54;6.45;;;1.50;;
21036;SDS011;10677;50.942;4.028;2023-08-06T07:57:20;8.70;;;1.70;;
21036;SDS011;10677;50.942;4.028;2023-08-06T07:59:45;8.80;;;2.13;;
21036;SDS011;10677;50.942;4.028;2023-08-06T08:02:11;18.00;;;2.13;;
21036;SDS011;10677;50.942;4.028;2023-08-06T08:04:37;9.25;;;1.50;;
21036;SDS011;10677;50.942;4.028;2023-08-06T08:07:02;10.45;;;1.70;;
21036;SDS011;10677;50.942;4.028;2023-08-06T08:09:28;10.00;;;2.20;;
21036;SDS011;10677;50.942;4.028;2023-08-06T08:11:54;11.65;;;1.85;;
21036;SDS011;10677;50.942;4.028;2023-08-06T08:14:20;8.20;;;1.42;;
21036;SDS011;10677;50.942;4.028;2023-08-06T08:16:46;7.70;;;1.45;;
21036;SDS011;10677;50.942;4.028;2023-08-06T08:19:12;11.65;;;1.70;;
21036;SDS011;10677;50.942;4.028;2023-08-06T08:21:37;11.40;;;2.05;;
21036;SDS011;10677;50.942;4.028;2023-08-06T08:24:03;9.80;;;1.83;;
21036;SDS011;10677;50.942;4.028;2023-08-06T08:26:30;6.18;;;1.30;;
21036;SDS011;10677;50.942;4.028;2023-08-06T08:28:56;11.63;;;1.60;;
21036;SDS011;10677;50.942;4.028;2023-08-06T08:31:22;12.60;;;1.92;;
21036;SDS011;10677;50.942;4.028;2023-08-06T08:33:47;7.90;;;1.83;;
21036;SDS011;10677;50.942;4.028;2023-08-06T08:36:13;10.98;;;2.10;;
21036;SDS011;10677;50.942;4.028;2023-08-06T08:38:39;10.00;;;1.67;;
21036;SDS011;10677;50.942;4.028;2023-08-06T08:41:05;7.13;;;1.65;;
21036;SDS011;10677;50.942;4.028;2023-08-06T08:43:31;8.93;;;1.58;;
21036;SDS011;10677;50.942;4.028;2023-08-06T08:45:57;9.68;;;1.52;;
21036;SDS011;10677;50.942;4.028;2023-08-06T08:48:24;7.45;;;1.70;;
21036;SDS011;10677;50.942;4.028;2023-08-06T08:50:51;6.15;;;1.75;;
21036;SDS011;10677;50.942;4.028;2023-08-06T08:53:18;11.27;;;1.58;;
21036;SDS011;10677;50.942;4.028;2023-08-06T08:55:46;10.23;;;2.10;;
21036;SDS011;10677;50.942;4.028;2023-08-06T08:58:13;10.18;;;1.88;;
21036;SDS011;10677;50.942;4.028;2023-08-06T09:00:42;10.05;;;2.22;;
21036;SDS011;10677;50.942;4.028;2023-08-06T09:03:10;9.23;;;1.73;;
21036;SDS011;10677;50.942;4.028;2023-08-06T09:05:36;11.35;;;1.83;;
21036;SDS011;10677;50.942;4.028;2023-08-06T09:08:05;10.38;;;2.00;;
21036;SDS011;10677;50.942;4.028;2023-08-06T09:10:33;11.32;;;2.00;;
21036;SDS011;10677;50.942;4.028;2023-08-06T09:12:59;18.08;;;3.22;;
21036;SDS011;10677;50.942;4.028;2023-08-06T09:15:26;8.68;;;2.13;;
21036;SDS011;10677;50.942;4.028;2023-08-06T09:17:55;8.73;;;1.90;;
21036;SDS011;10677;50.942;4.028;2023-08-06T09:20:21;7.72;;;2.35;;
21036;SDS011;10677;50.942;4.028;2023-08-06T09:22:47;9.77;;;2.22;;
21036;SDS011;10677;50.942;4.028;2023-08-06T09:25:23;9.80;;;1.90;;
21036;SDS011;10677;50.942;4.028;2023-08-06T09:27:50;12.43;;;1.80;;
21036;SDS011;10677;50.942;4.028;2023-08-06T09:30:32;9.10;;;2.05;;
21036;SDS011;10677;50.942;4.028;2023-08-06T09:33:01;12.25;;;1.88;;
21036;SDS011;10677;50.942;4.028;2023-08-06T09:35:28;12.40;;;1.75;;
21036;SDS011;10677;50.942;4.028;2023-08-06T09:37:55;10.57;;;2.65;;
21036;SDS011;10677;50.942;4.028;2023-08-06T09:40:32;7.90;;;2.00;;
21036;SDS011;10677;50.942;4.028;2023-08-06T09:42:58;12.98;;;1.45;;
21036;SDS011;10677;50.942;4.028;2023-08-06T09:45:31;8.65;;;1.52;;
21036;SDS011;10677;50.942;4.028;2023-08-06T09:47:58;7.00;;;1.50;;
21036;SDS011;10677;50.942;4.028;2023-08-06T09:50:34;10.38;;;1.90;;
21036;SDS011;10677;50.942;4.028;2023-08-06T09:53:02;10.48;;;1.55;;
21036;SDS011;10677;50.942;4.028;2023-08-06T09:55:28;8.85;;;1.40;;
21036;SDS011;10677;50.942;4.028;2023-08-06T09:57:55;7.82;;;1.27;;
21036;SDS011;10677;50.942;4.028;2023-08-06T10:00:21;7.10;;;1.30;;
21036;SDS011;10677;50.942;4.028;2023-08-06T10:02:48;8.27;;;1.35;;
21036;SDS011;10677;50.942;4.028;2023-08-06T10:05:16;7.72;;;1.40;;
21036;SDS011;10677;50.942;4.028;2023-08-06T10:07:43;8.35;;;1.80;;
21036;SDS011;10677;50.942;4.028;2023-08-06T10:10:10;9.93;;;1.70;;
21036;SDS011;10677;50.942;4.028;2023-08-06T10:12:37;8.27;;;1.70;;
21036;SDS011;10677;50.942;4.028;2023-08-06T10:15:07;5.45;;;1.25;;
21036;SDS011;10677;50.942;4.028;2023-08-06T10:17:36;10.25;;;1.83;;
21036;SDS011;10677;50.942;4.028;2023-08-06T10:20:07;7.88;;;1.88;;
21036;SDS011;10677;50.942;4.028;2023-08-06T10:22:33;10.63;;;1.85;;
21036;SDS011;10677;50.942;4.028;2023-08-06T10:25:00;8.82;;;1.92;;
21036;SDS011;10677;50.942;4.028;2023-08-06T10:32:50;11.52;;;2.03;;
21036;SDS011;10677;50.942;4.028;2023-08-06T10:38:12;11.98;;;2.00;;
21036;SDS011;10677;50.942;4.028;2023-08-06T10:40:40;8.38;;;1.90;;
21036;SDS011;10677;50.942;4.028;2023-08-06T10:45:53;8.10;;;1.48;;
21036;SDS011;10677;50.942;4.028;2023-08-06T10:50:55;6.57;;;2.05;;
21036;SDS011;10677;50.942;4.028;2023-08-06T10:53:21;9.05;;;1.63;;
21036;SDS011;10677;50.942;4.028;2023-08-06T10:55:47;8.18;;;1.55;;
21036;SDS011;10677;50.942;4.028;2023-08-06T10:58:15;9.15;;;1.52;;
21036;SDS011;10677;50.942;4.028;2023-08-06T11:00:41;11.88;;;1.75;;
21036;SDS011;10677;50.942;4.028;2023-08-06T11:03:07;5.18;;;1.35;;
21036;SDS011;10677;50.942;4.028;2023-08-06T11:05:34;8.25;;;1.38;;
21036;SDS011;10677;50.942;4.028;2023-08-06T11:08:00;6.07;;;1.50;;
21036;SDS011;10677;50.942;4.028;2023-08-06T11:10:26;5.28;;;1.13;;
21036;SDS011;10677;50.942;4.028;2023-08-06T11:12:52;8.80;;;1.55;;
21036;SDS011;10677;50.942;4.028;2023-08-06T11:15:19;6.57;;;1.20;;
21036;SDS011;10677;50.942;4.028;2023-08-06T11:17:46;7.90;;;1.33;;
21036;SDS011;10677;50.942;4.028;2023-08-06T11:20:12;6.28;;;1.30;;
21036;SDS011;10677;50.942;4.028;2023-08-06T11:22:39;8.18;;;1.80;;
21036;SDS011;10677;50.942;4.028;2023-08-06T11:25:06;6.93;;;1.52;;
21036;SDS011;10677;50.942;4.028;2023-08-06T11:27:32;6.97;;;2.00;;
21036;SDS011;10677;50.942;4.028;2023-08-06T11:29:58;9.98;;;1.88;;
21036;SDS011;10677;50.942;4.028;2023-08-06T11:32:24;10.82;;;2.22;;
21036;SDS011;10677;50.942;4.028;2023-08-06T11:34:49;6.43;;;1.30;;
21036;SDS011;10677;50.942;4.028;2023-08-06T11:37:15;6.65;;;1.58;;
21036;SDS011;10677;50.942;4.028;2023-08-06T11:39:44;7.32;;;1.90;;
21036;SDS011;10677;50.942;4.028;2023-08-06T11:42:13;7.07;;;1.70;;
21036;SDS011;10677;50.942;4.028;2023-08-06T11:44:40;9.63;;;1.65;;
21036;SDS011;10677;50.942;4.028;2023-08-06T11:47:12;8.95;;;1.88;;
21036;SDS011;10677;50.942;4.028;2023-08-06T11:57:35;9.27;;;1.70;;
21036;SDS011;10677;50.942;4.028;2023-08-06T12:00:09;8.63;;;1.55;;
21036;SDS011;10677;50.942;4.028;2023-08-06T12:02:38;10.52;;;1.75;;
21036;SDS011;10677;50.942;4.028;2023-08-06T12:07:40;14.13;;;2.30;;
21036;SDS011;10677;50.942;4.028;2023-08-06T12:10:06;8.68;;;1.60;;
21036;SDS011;10677;50.942;4.028;2023-08-06T12:12:33;7.40;;;1.40;;
21036;SDS011;10677;50.942;4.028;2023-08-06T12:15:00;12.93;;;2.25;;
21036;SDS011;10677;50.942;4.028;2023-08-06T12:17:25;13.38;;;2.25;;
21036;SDS011;10677;50.942;4.028;2023-08-06T12:19:51;8.80;;;1.58;;
21036;SDS011;10677;50.942;4.028;2023-08-06T12:22:17;9.07;;;1.77;;
21036;SDS011;10677;50.942;4.028;2023-08-06T12:24:44;9.13;;;1.73;;
21036;SDS011;10677;50.942;4.028;2023-08-06T12:27:10;4.65;;;1.17;;
21036;SDS011;10677;50.942;4.028;2023-08-06T12:29:43;9.85;;;1.77;;
21036;SDS011;10677;50.942;4.028;2023-08-06T12:32:10;10.98;;;1.75;;
21036;SDS011;10677;50.942;4.028;2023-08-06T12:34:37;6.25;;;1.98;;
21036;SDS011;10677;50.942;4.028;2023-08-06T12:37:04;6.30;;;1.48;;
21036;SDS011;10677;50.942;4.028;2023-08-06T12:39:30;9.05;;;2.05;;
21036;SDS011;10677;50.942;4.028;2023-08-06T12:41:57;8.63;;;1.77;;
21036;SDS011;10677;50.942;4.028;2023-08-06T12:44:24;6.82;;;1.85;;
21036;SDS011;10677;50.942;4.028;2023-08-06T12:46:50;7.93;;;1.65;;
21036;SDS011;10677;50.942;4.028;2023-08-06T12:49:17;15.57;;;2.92;;
21036;SDS011;10677;50.942;4.028;2023-08-06T12:51:43;9.50;;;1.80;;
21036;SDS011;10677;50.942;4.028;2023-08-06T12:54:08;11.65;;;1.83;;
21036;SDS011;10677;50.942;4.028;2023-08-06T12:56:34;11.98;;;2.30;;
21036;SDS011;10677;50.942;4.028;2023-08-06T12:59:00;7.15;;;1.85;;
21036;SDS011;10677;50.942;4.028;2023-08-06T13:01:25;9.90;;;1.80;;
21036;SDS011;10677;50.942;4.028;2023-08-06T13:03:51;11.30;;;1.58;;
21036;SDS011;10677;50.942;4.028;2023-08-06T13:06:17;9.75;;;1.67;;
21036;SDS011;10677;50.942;4.028;2023-08-06T13:08:42;7.75;;;1.30;;
21036;SDS011;10677;50.942;4.028;2023-08-06T13:11:09;5.10;;;1.27;;
21036;SDS011;10677;50.942;4.028;2023-08-06T13:13:34;13.50;;;2.03;;
21036;SDS011;10677;50.942;4.028;2023-08-06T13:16:00;8.93;;;1.73;;
21036;SDS011;10677;50.942;4.028;2023-08-06T13:18:26;8.93;;;1.20;;
21036;SDS011;10677;50.942;4.028;2023-08-06T13:20:55;5.55;;;1.55;;
21036;SDS011;10677;50.942;4.028;2023-08-06T13:23:21;7.72;;;1.60;;
21036;SDS011;10677;50.942;4.028;2023-08-06T13:25:46;6.55;;;1.40;;
21036;SDS011;10677;50.942;4.028;2023-08-06T13:28:12;8.25;;;1.50;;
21036;SDS011;10677;50.942;4.028;2023-08-06T13:30:39;10.40;;;1.70;;
21036;SDS011;10677;50.942;4.028;2023-08-06T13:33:10;9.93;;;2.25;;
21036;SDS011;10677;50.942;4.028;2023-08-06T13:35:36;9.68;;;1.70;;
21036;SDS011;10677;50.942;4.028;2023-08-06T13:38:02;6.93;;;1.15;;
21036;SDS011;10677;50.942;4.028;2023-08-06T13:40:28;8.70;;;1.60;;
21036;SDS011;10677;50.942;4.028;2023-08-06T13:42:55;8.30;;;1.55;;
21036;SDS011;10677;50.942;4.028;2023-08-06T13:45:21;9.10;;;1.50;;
21036;SDS011;10677;50.942;4.028;2023-08-06T13:47:46;8.48;;;1.58;;
21036;SDS011;10677;50.942;4.028;2023-08-06T13:50:12;8.13;;;1.13;;
21036;SDS011;10677;50.942;4.028;2023-08-06T13:52:38;7.30;;;1.20;;
21036;SDS011;10677;50.942;4.028;2023-08-06T13:55:04;8.80;;;1.70;;
21036;SDS011;10677;50.942;4.028;2023-08-06T13:57:32;5.13;;;1.42;;
21036;SDS011;10677;50.942;4.028;2023-08-06T13:59:59;10.88;;;2.05;;
21036;SDS011;10677;50.942;4.028;2023-08-06T14:02:24;8.45;;;2.00;;
21036;SDS011;10677;50.942;4.028;2023-08-06T14:04:51;9.95;;;1.75;;
21036;SDS011;10677;50.942;4.028;2023-08-06T14:07:18;10.35;;;1.63;;
21036;SDS011;10677;50.942;4.028;2023-08-06T14:09:43;10.60;;;1.60;;
21036;SDS011;10677;50.942;4.028;2023-08-06T14:12:09;7.60;;;1.65;;
21036;SDS011;10677;50.942;4.028;2023-08-06T14:14:35;9.57;;;2.13;;
21036;SDS011;10677;50.942;4.028;2023-08-06T14:17:01;7.95;;;1.52;;
21036;SDS011;10677;50.942;4.028;2023-08-06T14:19:27;5.85;;;1.27;;
21036;SDS011;10677;50.942;4.028;2023-08-06T14:21:52;8.40;;;1.95;;
21036;SDS011;10677;50.942;4.028;2023-08-06T14:24:18;8.95;;;1.67;;
21036;SDS011;10677;50.942;4.028;2023-08-06T14:26:44;7.38;;;2.25;;
21036;SDS011;10677;50.942;4.028;2023-08-06T14:29:10;6.10;;;1.58;;
21036;SDS011;10677;50.942;4.028;2023-08-06T14:31:35;6.28;;;1.50;;
21036;SDS011;10677;50.942;4.028;2023-08-06T14:34:01;7.10;;;1.60;;
21036;SDS011;10677;50.942;4.028;2023-08-06T14:36:27;11.30;;;2.40;;
21036;SDS011;10677;50.942;4.028;2023-08-06T14:38:52;9.32;;;1.50;;
21036;SDS011;10677;50.942;4.028;2023-08-06T14:41:18;8.77;;;1.80;;
21036;SDS011;10677;50.942;4.028;2023-08-06T14:43:43;6.72;;;1.20;;
21036;SDS011;10677;50.942;4.028;2023-08-06T14:46:09;9.63;;;1.63;;
21036;SDS011;10677;50.942;4.028;2023-08-06T14:48:35;7.05;;;1.58;;
21036;SDS011;10677;50.942;4.028;2023-08-06T14:51:01;6.65;;;1.92;;
21036;SDS011;10677;50.942;4.028;2023-08-06T14:53:27;7.50;;;1.45;;
21036;SDS011;10677;50.942;4.028;2023-08-06T14:55:52;8.48;;;1.40;;
21036;SDS011;10677;50.942;4.028;2023-08-06T14:58:19;4.97;;;1.15;;
21036;SDS011;10677;50.942;4.028;2023-08-06T15:00:44;7.30;;;1.10;;
21036;SDS011;10677;50.942;4.028;2023-08-06T15:03:11;6.97;;;1.50;;
21036;SDS011;10677;50.942;4.028;2023-08-06T15:05:36;7.07;;;1.30;;